createdAt,value
2022-07-29T00:02:03.229Z,99.90
2022-07-29T00:05:09.496Z,99.90
2022-07-29T00:08:14.088Z,99.90
2022-07-29T00:11:18.398Z,99.90
2022-07-29T00:14:22.948Z,99.90
2022-07-29T00:17:27.176Z,99.90
2022-07-29T00:20:31.539Z,99.90
2022-07-29T00:23:36.952Z,99.90
2022-07-29T00:26:41.328Z,99.90
2022-07-29T00:29:45.982Z,99.90
2022-07-29T00:32:50.506Z,99.90
2022-07-29T00:35:54.894Z,99.90
2022-07-29T00:39:00.304Z,99.90
2022-07-29T00:42:05.767Z,99.90
2022-07-29T00:45:10.596Z,99.90
2022-07-29T00:48:15.205Z,99.90
2022-07-29T00:51:19.721Z,99.90
2022-07-29T00:54:24.536Z,99.90
2022-07-29T00:57:28.963Z,99.90
2022-07-29T01:00:33.306Z,99.90
2022-07-29T01:03:37.522Z,99.90
2022-07-29T01:06:43.756Z,99.90
2022-07-29T01:09:48.605Z,99.90
2022-07-29T01:12:55.553Z,99.90
2022-07-29T01:16:09.402Z,99.90
2022-07-29T01:19:40.598Z,99.90
2022-07-29T01:22:53.992Z,99.90
2022-07-29T01:26:01.811Z,99.90
2022-07-29T01:29:38.846Z,99.90
2022-07-29T01:32:48.906Z,99.90
2022-07-29T01:35:53.739Z,99.90
2022-07-29T01:39:33.387Z,99.90
2022-07-29T01:42:43.069Z,99.90
2022-07-29T01:45:58.795Z,99.90
2022-07-29T01:49:11.113Z,99.90
2022-07-29T01:52:28.038Z,99.90
2022-07-29T01:55:37.480Z,99.90
2022-07-29T01:58:43.678Z,99.90
2022-07-29T02:01:51.030Z,99.90
2022-07-29T02:05:01.250Z,99.90
2022-07-29T02:08:07.473Z,99.90
2022-07-29T02:11:12.562Z,99.90
2022-07-29T02:14:19.011Z,99.90
2022-07-29T02:17:36.299Z,99.90
2022-07-29T02:20:49.069Z,99.90
2022-07-29T02:23:54.596Z,99.90
2022-07-29T02:27:01.054Z,99.90
2022-07-29T02:30:08.087Z,99.90
2022-07-29T02:33:15.644Z,99.90
2022-07-29T02:36:23.674Z,99.90
2022-07-29T02:39:29.761Z,99.90
2022-07-29T02:42:37.174Z,99.90
2022-07-29T02:45:42.579Z,99.90
2022-07-29T02:48:59.074Z,99.90
2022-07-29T02:52:35.102Z,99.90
2022-07-29T02:55:46.650Z,99.90
2022-07-29T02:58:55.742Z,99.90
2022-07-29T03:02:01.393Z,99.90
2022-07-29T03:05:09.265Z,99.90
2022-07-29T03:08:16.832Z,99.90
2022-07-29T03:11:22.787Z,99.90
2022-07-29T03:14:47.996Z,99.90
2022-07-29T03:17:53.326Z,99.90
2022-07-29T03:20:57.910Z,99.90
2022-07-29T03:24:06.745Z,99.90
2022-07-29T03:27:14.262Z,99.90
2022-07-29T03:30:22.112Z,99.90
2022-07-29T03:33:27.142Z,99.90
2022-07-29T03:36:31.456Z,99.90
2022-07-29T03:39:41.645Z,99.90
2022-07-29T03:42:47.825Z,99.90
2022-07-29T03:45:55.841Z,99.90
2022-07-29T03:49:03.973Z,99.90
2022-07-29T03:52:09.303Z,99.90
2022-07-29T03:55:15.627Z,99.90
2022-07-29T03:58:20.388Z,99.90
2022-07-29T04:01:25.679Z,99.90
2022-07-29T04:04:33.013Z,99.90
2022-07-29T04:07:37.573Z,99.90
2022-07-29T04:10:41.903Z,99.90
2022-07-29T04:13:46.260Z,99.90
2022-07-29T04:16:50.714Z,99.90
2022-07-29T04:19:55.175Z,99.90
2022-07-29T04:22:59.478Z,99.90
2022-07-29T04:26:03.989Z,99.90
2022-07-29T04:29:08.535Z,99.90
2022-07-29T04:32:13.247Z,99.90
2022-07-29T04:35:17.909Z,99.90
2022-07-29T04:38:23.088Z,99.90
2022-07-29T04:41:33.335Z,99.90
2022-07-29T04:44:39.459Z,99.90
2022-07-29T04:47:44.261Z,99.90
2022-07-29T04:50:48.444Z,99.90
2022-07-29T04:53:52.848Z,99.90
2022-07-29T04:56:57.493Z,99.90
2022-07-29T05:00:02.161Z,99.90
2022-07-29T05:03:06.545Z,99.90
2022-07-29T05:06:10.971Z,99.90
2022-07-29T05:09:15.314Z,99.90
2022-07-29T05:12:19.644Z,99.90
2022-07-29T05:15:24.145Z,99.90
2022-07-29T05:18:29.330Z,99.90
2022-07-29T05:21:34.106Z,99.90
2022-07-29T05:24:38.333Z,99.90
2022-07-29T05:27:42.862Z,99.90
2022-07-29T05:30:47.406Z,99.90
2022-07-29T05:33:51.995Z,99.90
2022-07-29T05:36:56.483Z,99.90
2022-07-29T05:40:00.528Z,99.90
2022-07-29T05:43:04.877Z,99.90
2022-07-29T05:46:09.355Z,99.90
2022-07-29T05:49:14.210Z,99.90
2022-07-29T05:52:31.684Z,99.90
2022-07-29T05:55:35.997Z,99.90
2022-07-29T05:58:43.419Z,99.90
2022-07-29T06:01:47.906Z,99.90
2022-07-29T06:04:52.534Z,99.90
2022-07-29T06:07:57.031Z,99.90
2022-07-29T06:11:02.159Z,99.90
2022-07-29T06:14:06.268Z,99.90
2022-07-29T06:17:12.537Z,99.90
2022-07-29T06:20:17.463Z,99.90
2022-07-29T06:23:31.457Z,99.90
2022-07-29T06:26:39.755Z,99.90
2022-07-29T06:29:44.075Z,99.90
2022-07-29T06:32:48.375Z,99.90
2022-07-29T06:35:53.448Z,99.90
2022-07-29T06:38:59.525Z,99.90
2022-07-29T06:42:07.985Z,99.90
2022-07-29T06:45:13.953Z,99.90
2022-07-29T06:48:18.471Z,99.90
2022-07-29T06:51:24.011Z,99.90
2022-07-29T06:54:28.255Z,99.90
2022-07-29T06:57:32.490Z,99.90
2022-07-29T07:00:37.214Z,99.90
2022-07-29T07:03:42.856Z,99.90
2022-07-29T07:06:47.380Z,99.90
2022-07-29T07:09:51.778Z,99.90
2022-07-29T07:12:55.923Z,99.90
2022-07-29T07:16:00.564Z,99.90
2022-07-29T07:19:05.278Z,99.90
2022-07-29T07:22:10.018Z,99.90
2022-07-29T07:25:14.713Z,99.90
2022-07-29T07:28:24.542Z,99.90
2022-07-29T07:31:29.614Z,99.90
2022-07-29T07:34:33.651Z,99.90
2022-07-29T07:37:41.445Z,99.90
2022-07-29T07:40:47.343Z,99.90
2022-07-29T07:43:51.894Z,99.90
2022-07-29T07:46:56.948Z,99.90
2022-07-29T07:50:13.813Z,99.90
2022-07-29T07:53:22.696Z,99.90
2022-07-29T07:56:30.661Z,99.90
2022-07-29T07:59:38.348Z,98.00
2022-07-29T08:02:43.915Z,97.90
2022-07-29T08:05:49.254Z,99.90
2022-07-29T08:08:56.454Z,99.90
2022-07-29T08:12:04.536Z,99.90
2022-07-29T08:15:09.378Z,99.60
2022-07-29T08:18:14.346Z,98.40
2022-07-29T08:21:19.820Z,99.90
2022-07-29T08:24:42.694Z,95.60
2022-07-29T08:27:48.057Z,96.20
2022-07-29T08:30:52.393Z,93.60
2022-07-29T08:33:57.379Z,97.30
2022-07-29T08:37:03.041Z,97.70
2022-07-29T08:40:07.993Z,98.40
2022-07-29T08:43:12.694Z,96.20
2022-07-29T08:46:18.219Z,96.60
2022-07-29T08:49:23.062Z,96.30
2022-07-29T08:52:29.457Z,95.80
2022-07-29T08:55:34.369Z,95.30
2022-07-29T08:58:39.811Z,94.20
2022-07-29T09:01:45.999Z,92.90
2022-07-29T09:04:51.597Z,94.20
2022-07-29T09:07:56.434Z,94.60
2022-07-29T09:11:03.904Z,94.50
2022-07-29T09:14:11.850Z,95.30
2022-07-29T09:17:18.026Z,94.40
2022-07-29T09:20:24.026Z,95.00
2022-07-29T09:23:28.359Z,95.20
2022-07-29T09:26:34.117Z,93.10
2022-07-29T09:29:39.339Z,93.30
2022-07-29T09:33:03.700Z,92.70
2022-07-29T09:36:09.597Z,94.20
2022-07-29T09:39:17.803Z,92.40
2022-07-29T09:42:30.791Z,93.20
2022-07-29T09:45:35.562Z,92.70
2022-07-29T09:48:40.339Z,91.60
2022-07-29T09:51:45.041Z,90.00
2022-07-29T09:54:49.616Z,89.40
2022-07-29T09:57:54.680Z,90.10
2022-07-29T10:00:59.197Z,89.00
2022-07-29T10:04:05.125Z,89.60
2022-07-29T10:07:10.523Z,84.60
2022-07-29T10:10:32.920Z,81.00
2022-07-29T10:13:37.429Z,82.60
2022-07-29T10:16:42.165Z,81.20
2022-07-29T10:19:48.038Z,83.00
2022-07-29T10:22:54.435Z,86.80
2022-07-29T10:25:58.879Z,84.50
2022-07-29T10:29:03.649Z,83.00
2022-07-29T10:32:20.574Z,82.90
2022-07-29T10:35:46.590Z,81.50
2022-07-29T10:39:16.508Z,99.50
2022-07-29T10:42:34.285Z,99.30
2022-07-29T10:45:38.798Z,96.10
2022-07-29T10:49:16.102Z,95.10
2022-07-29T10:52:20.922Z,99.90
2022-07-29T10:55:43.684Z,99.90
2022-07-29T10:59:21.713Z,99.90
2022-07-29T11:06:08.829Z,99.90
2022-07-29T11:09:34.870Z,99.90
2022-07-29T11:12:44.937Z,99.90
2022-07-29T11:15:56.986Z,99.90
2022-07-29T11:19:26.698Z,99.40
2022-07-29T11:22:37.019Z,95.40
2022-07-29T11:26:18.974Z,99.90
2022-07-29T11:29:23.962Z,99.90
2022-07-29T11:32:39.802Z,99.90
2022-07-29T11:36:16.599Z,99.90
2022-07-29T11:39:36.772Z,97.70
2022-07-29T11:42:53.418Z,99.90
2022-07-29T11:46:00.040Z,99.90
2022-07-29T11:49:09.207Z,99.90
2022-07-29T11:52:15.033Z,96.50
2022-07-29T11:55:32.637Z,98.90
2022-07-29T11:58:38.710Z,98.90
2022-07-29T12:02:12.168Z,94.40
2022-07-29T12:05:35.983Z,93.50
2022-07-29T12:08:43.586Z,96.20
2022-07-29T12:11:49.174Z,91.50
2022-07-29T12:14:55.961Z,91.80
2022-07-29T12:18:18.212Z,92.60
2022-07-29T12:21:25.677Z,97.30
2022-07-29T12:24:45.066Z,98.50
2022-07-29T12:27:58.639Z,99.90
2022-07-29T12:31:04.634Z,99.90
2022-07-29T12:34:12.109Z,99.90
2022-07-29T12:37:17.378Z,99.90
2022-07-29T12:40:23.861Z,99.80
2022-07-29T12:43:28.382Z,99.90
2022-07-29T12:46:32.882Z,99.90
2022-07-29T12:49:37.955Z,99.90
2022-07-29T12:52:42.657Z,99.90
2022-07-29T12:55:52.220Z,98.80
2022-07-29T12:58:56.641Z,99.80
2022-07-29T13:02:01.358Z,98.60
2022-07-29T13:05:07.233Z,99.70
2022-07-29T13:08:20.371Z,99.90
2022-07-29T13:11:34.189Z,99.90
2022-07-29T13:14:42.791Z,99.80
2022-07-29T13:17:47.939Z,96.50
2022-07-29T13:20:52.580Z,92.70
2022-07-29T13:23:56.951Z,92.30
2022-07-29T13:27:01.467Z,93.00
2022-07-29T13:30:11.642Z,99.90
2022-07-29T13:33:16.003Z,98.10
2022-07-29T13:36:20.526Z,94.60
2022-07-29T13:39:24.865Z,93.60
2022-07-29T13:42:29.341Z,96.50
2022-07-29T13:45:34.121Z,98.20
2022-07-29T13:48:38.511Z,99.30
2022-07-29T13:51:42.914Z,99.90
2022-07-29T13:54:47.839Z,99.90
2022-07-29T13:57:52.341Z,98.00
2022-07-29T14:00:57.921Z,99.10
2022-07-29T14:04:02.466Z,99.80
2022-07-29T14:07:07.805Z,98.60
2022-07-29T14:10:14.307Z,96.60
2022-07-29T14:13:25.110Z,96.30
2022-07-29T14:16:30.609Z,93.50
2022-07-29T14:19:39.289Z,93.50
2022-07-29T14:22:45.044Z,93.30
2022-07-29T14:25:50.152Z,93.90
2022-07-29T14:28:54.608Z,95.20
2022-07-29T14:31:59.504Z,94.60
2022-07-29T14:35:05.651Z,93.90
2022-07-29T14:38:10.290Z,94.10
2022-07-29T14:41:14.949Z,98.50
2022-07-29T14:44:19.344Z,99.90
2022-07-29T14:47:24.268Z,95.90
2022-07-29T14:50:31.608Z,95.10
2022-07-29T14:53:36.275Z,95.80
2022-07-29T14:56:46.857Z,92.70
2022-07-29T14:59:51.645Z,90.80
2022-07-29T15:03:03.520Z,89.90
2022-07-29T15:06:08.109Z,82.00
2022-07-29T15:09:12.799Z,85.10
2022-07-29T15:12:17.547Z,79.70
2022-07-29T15:15:22.605Z,75.50
2022-07-29T15:18:27.108Z,75.20
2022-07-29T15:21:31.433Z,74.70
2022-07-29T15:24:35.889Z,82.90
2022-07-29T15:27:40.182Z,86.70
2022-07-29T15:30:44.661Z,77.50
2022-07-29T15:33:49.027Z,74.50
2022-07-29T15:36:53.865Z,77.70
2022-07-29T15:40:00.173Z,73.20
2022-07-29T15:43:06.667Z,74.10
2022-07-29T15:46:35.892Z,75.40
2022-07-29T15:49:48.559Z,74.50
2022-07-29T15:52:54.106Z,74.40
2022-07-29T15:55:58.493Z,74.70
2022-07-29T15:59:03.818Z,71.90
2022-07-29T16:02:08.691Z,71.40
2022-07-29T16:05:13.172Z,72.60
2022-07-29T16:08:17.800Z,71.90
2022-07-29T16:11:22.710Z,72.20
2022-07-29T16:14:28.205Z,73.00
2022-07-29T16:17:33.235Z,73.50
2022-07-29T16:20:37.866Z,75.40
2022-07-29T16:23:42.543Z,74.10
2022-07-29T16:26:46.976Z,74.90
2022-07-29T16:29:52.557Z,75.20
2022-07-29T16:32:57.304Z,75.40
2022-07-29T16:36:02.248Z,75.50
2022-07-29T16:39:07.022Z,76.10
2022-07-29T16:42:21.283Z,75.80
2022-07-29T16:45:43.913Z,76.00
2022-07-29T16:48:51.308Z,76.50
2022-07-29T16:51:56.156Z,76.60
2022-07-29T16:55:00.622Z,79.00
2022-07-29T16:58:05.283Z,80.00
2022-07-29T17:01:09.971Z,86.10
2022-07-29T17:04:15.083Z,95.60
2022-07-29T17:07:19.722Z,96.80
2022-07-29T17:10:25.574Z,96.80
2022-07-29T17:13:32.510Z,97.80
2022-07-29T17:16:36.709Z,99.50
2022-07-29T17:19:40.971Z,99.90
2022-07-29T17:22:45.635Z,99.90
2022-07-29T17:25:50.090Z,99.90
2022-07-29T17:28:54.697Z,99.90
2022-07-29T17:32:00.049Z,99.90
2022-07-29T17:35:26.636Z,99.90
2022-07-29T17:38:31.015Z,99.90
2022-07-29T17:41:35.295Z,99.90
2022-07-29T17:44:40.151Z,99.90
2022-07-29T17:47:45.330Z,99.90
2022-07-29T17:50:49.572Z,99.90
2022-07-29T17:53:55.227Z,99.90
2022-07-29T17:57:00.635Z,99.90
2022-07-29T18:00:08.510Z,99.90
2022-07-29T18:03:13.358Z,99.90
2022-07-29T18:06:17.973Z,99.90
2022-07-29T18:09:22.630Z,99.90
2022-07-29T18:12:28.271Z,99.90
2022-07-29T18:15:33.570Z,99.90
2022-07-29T18:18:37.941Z,99.90
2022-07-29T18:21:51.348Z,99.90
2022-07-29T18:24:59.487Z,99.90
2022-07-29T18:28:05.341Z,99.90
2022-07-29T18:31:10.215Z,99.90
2022-07-29T18:34:14.526Z,99.90
2022-07-29T18:37:18.884Z,99.90
2022-07-29T18:40:44.508Z,99.90
2022-07-29T18:43:48.815Z,99.90
2022-07-29T18:46:53.520Z,99.90
2022-07-29T18:49:58.495Z,99.90
2022-07-29T18:53:04.741Z,99.90
2022-07-29T18:56:09.614Z,99.90
2022-07-29T18:59:21.400Z,99.90
2022-07-29T19:02:26.921Z,99.90
2022-07-29T19:05:31.818Z,99.90
2022-07-29T19:08:36.408Z,99.90
2022-07-29T19:11:40.635Z,99.90
2022-07-29T19:14:45.398Z,99.90
2022-07-29T19:17:49.928Z,99.90
2022-07-29T19:20:54.549Z,99.90
2022-07-29T19:24:06.269Z,99.90
2022-07-29T19:27:12.982Z,99.90
2022-07-29T19:30:17.680Z,99.90
2022-07-29T19:33:22.338Z,99.90
2022-07-29T19:36:27.248Z,99.90
2022-07-29T19:39:35.536Z,99.90
2022-07-29T19:42:39.853Z,99.90
2022-07-29T19:45:44.278Z,99.90
2022-07-29T19:48:49.233Z,99.90
2022-07-29T19:51:53.609Z,99.90
2022-07-29T19:54:58.562Z,99.90
2022-07-29T19:58:04.419Z,99.90
2022-07-29T20:01:12.707Z,99.90
2022-07-29T20:04:17.162Z,99.90
2022-07-29T20:07:21.442Z,99.90
2022-07-29T20:10:26.159Z,99.90
2022-07-29T20:13:33.089Z,99.90
2022-07-29T20:16:37.610Z,99.90
2022-07-29T20:19:42.710Z,99.90
2022-07-29T20:22:46.981Z,99.90
2022-07-29T20:25:51.555Z,99.90
2022-07-29T20:28:56.540Z,99.90
2022-07-29T20:32:00.640Z,99.90
2022-07-29T20:35:05.580Z,99.90
2022-07-29T20:38:11.445Z,99.90
2022-07-29T20:41:17.700Z,99.90
2022-07-29T20:44:24.270Z,99.90
2022-07-29T20:47:28.626Z,99.90
2022-07-29T20:50:33.050Z,99.90
2022-07-29T20:53:38.807Z,99.90
2022-07-29T20:56:43.264Z,99.90
2022-07-29T20:59:47.842Z,99.90
2022-07-29T21:02:52.219Z,99.90
2022-07-29T21:05:57.031Z,99.90
2022-07-29T21:09:01.426Z,99.90
2022-07-29T21:12:06.697Z,99.90
2022-07-29T21:15:13.531Z,99.90
2022-07-29T21:18:27.877Z,99.90
2022-07-29T21:21:32.296Z,99.90
2022-07-29T21:24:37.066Z,99.90
2022-07-29T21:28:00.313Z,99.90
2022-07-29T21:31:07.264Z,99.90
2022-07-29T21:34:11.706Z,99.90
2022-07-29T21:37:16.035Z,99.90
2022-07-29T21:40:20.745Z,99.90
2022-07-29T21:43:26.673Z,99.90
2022-07-29T21:46:31.057Z,99.90
2022-07-29T21:49:35.672Z,99.90
2022-07-29T21:52:41.623Z,99.90
2022-07-29T21:55:50.686Z,99.90
2022-07-29T21:58:56.430Z,99.90
2022-07-29T22:02:01.058Z,99.90
2022-07-29T22:05:05.642Z,99.90
2022-07-29T22:08:10.473Z,99.90
2022-07-29T22:11:14.906Z,99.90
2022-07-29T22:14:19.391Z,99.90
2022-07-29T22:17:24.336Z,99.90
2022-07-29T22:20:28.723Z,99.90
2022-07-29T22:23:33.161Z,99.90
2022-07-29T22:26:38.344Z,99.90
2022-07-29T22:29:43.042Z,99.90
2022-07-29T22:32:47.987Z,99.90
2022-07-29T22:35:52.069Z,99.90
2022-07-29T22:38:56.233Z,99.90
2022-07-29T22:42:00.719Z,99.90
2022-07-29T22:45:05.709Z,99.90
2022-07-29T22:48:10.598Z,99.90
2022-07-29T22:51:16.292Z,99.90
2022-07-29T22:54:20.638Z,99.90
2022-07-29T22:57:25.816Z,99.90
2022-07-29T23:00:30.406Z,99.90
2022-07-29T23:03:35.188Z,99.90
2022-07-29T23:06:39.806Z,99.90
2022-07-29T23:09:44.325Z,99.90
2022-07-29T23:12:48.922Z,99.90
2022-07-29T23:15:53.258Z,99.90
2022-07-29T23:18:57.644Z,99.90
2022-07-29T23:22:01.967Z,99.90
2022-07-29T23:25:06.799Z,99.90
2022-07-29T23:28:12.318Z,99.90
2022-07-29T23:31:17.457Z,99.90
2022-07-29T23:34:21.583Z,99.90
2022-07-29T23:37:26.884Z,99.90
2022-07-29T23:40:31.630Z,99.90
2022-07-29T23:43:37.345Z,99.90
2022-07-29T23:46:41.894Z,99.90
2022-07-29T23:49:46.464Z,99.90
2022-07-29T23:52:51.145Z,99.90
2022-07-29T23:55:56.350Z,99.90
2022-07-29T23:59:00.923Z,99.90
